Hauptseite
METAR-TAF:

METAR-TAF

Flughäfen :

London Oxford Airport

Oxford, England

Breite: 51-50-13N, Länge: 1-19-12W, Höhe: 82 m

Beobachtung

Neuester Wetterbericht von vor 5 Stunden und 27 Minuten, um 19:50 UTC
Wind 5 kt aus West
Temperatur 6°C
Luftfeuchtigkeit 70%
Luftdruck 1023 hPa
Sichtweite 10 km oder mehr
keine Wolken unter 1500 m und keine Kumulonimbus oder Gewitterwolken

METAR: EGTK 231950Z 26005KT CAVOK 06/01 Q1023

Zeit: 01:17 (01:17 UTC)

Prognose

Neuester Wetterbericht von vor 8 Stunden und 16 Minuten, um 17:01 UTC
Gültige Prognose vom 23 um 18 UTC bis 23 um 23 UTC
Wind 10 kt aus West/Nordwest
Sichtweite 10 km oder mehr
Aufgelockert bewölkt in der Höhe von 4000 ft
Übergehend zu
vom 23 um 19 UTC bis 23 um 22 UTC
Wind 3 kt aus West/Südwest

TAF: EGTK 231701Z 2318/2323 30010KT 9999 SCT040 BECMG 2319/2322 24003KT

Wetterbeobachtungen und Prognosen von mehr als 4000 Flughäfen (METAR und TAF Bericht).

Die verfügbaren Stationen werden durch gelbe und rote Markierungen auf der Karte dargestellt.

Führen Sie die Maus auf sie, um den Namen der Station zu sehen.

Darauf klicken, um die Beobachtung von Wetterbeobachtungen und Prognosen zu sehen.

Um die Karte zu ändern : klicken Sie auf den grünen Tasten mit einem schwarzen Kreuz Zum Vergrößern, auf den grünen Button mit einem Gedankenstrich zu verkleinern, oder auf die grünen Pfeile für benachbarte Karten.


METAR-TAF: